Time;durP1;ratioP1;P1;durP2;ratioP2;P2;SDS_P1;SDS_P2;PMS_P1;PMS_P2;Temp;Humidity;BMP_temperature;BMP_pressure;BME280_temperature;BME280_humidity;BME280_pressure;Samples;Min_cycle;Max_cycle;Signal;HPM_P1;HPM_P2
2023/07/21 00:01:01;;;;;;;5.30;4.80;;;16.10;1.00;;;;;;5099102;28;20464;-58
2023/07/21 00:03:28;;;;;;;5.50;5.00;;;16.10;27.30;;;;;;5097595;28;20532;-58
2023/07/21 00:05:55;;;;;;;6.10;5.60;;;16.20;34.10;;;;;;5099010;28;20837;-59
2023/07/21 00:08:29;;;;;;;5.73;5.23;;;16.20;27.10;;;;;;5098325;28;20460;-58
2023/07/21 00:10:56;;;;;;;6.67;6.07;;;16.20;22.30;;;;;;5097332;28;20476;-58
2023/07/21 00:13:23;;;;;;;6.80;5.37;;;16.20;22.00;;;;;;5098055;28;20479;-58
2023/07/21 00:15:51;;;;;;;6.57;5.53;;;16.20;26.10;;;;;;5099202;28;20488;-58
2023/07/21 00:18:19;;;;;;;6.03;5.40;;;16.10;90.00;;;;;;5098927;28;20460;-58
2023/07/21 00:20:46;;;;;;;4.93;4.53;;;16.10;99.90;;;;;;5098281;28;20889;-59
2023/07/21 00:23:13;;;;;;;5.13;4.73;;;16.10;99.90;;;;;;5097695;28;20586;-59
2023/07/21 00:25:45;;;;;;;6.03;5.43;;;16.10;95.20;;;;;;5098564;28;20460;-59
2023/07/21 00:28:13;;;;;;;5.63;5.23;;;16.00;99.90;;;;;;5097304;28;20699;-59
2023/07/21 00:30:40;;;;;;;5.83;5.30;;;15.90;99.90;;;;;;5096949;28;20559;-59
2023/07/21 00:33:08;;;;;;;5.13;4.70;;;15.90;99.90;;;;;;5097154;28;20749;-59
2023/07/21 00:35:35;;;;;;;5.30;4.80;;;15.80;99.90;;;;;;5094180;28;20561;-59
2023/07/21 00:38:04;;;;;;;6.30;5.80;;;15.90;99.90;;;;;;5097345;28;20487;-59
2023/07/21 00:40:34;;;;;;;6.47;5.90;;;15.80;99.90;;;;;;5095502;28;20472;-59
2023/07/21 00:43:04;;;;;;;7.87;5.90;;;15.70;99.90;;;;;;5098123;28;20488;-58
2023/07/21 00:45:36;;;;;;;6.40;5.80;;;15.50;99.90;;;;;;5097881;28;20476;-58
2023/07/21 00:48:04;;;;;;;6.27;5.67;;;15.50;1.00;;;;;;5098384;28;20594;-58
2023/07/21 00:50:31;;;;;;;6.77;6.17;;;15.40;1.00;;;;;;5097744;28;20514;-59
2023/07/21 00:52:59;;;;;;;7.50;6.90;;;15.30;1.00;;;;;;5097616;28;20457;-58
2023/07/21 00:55:27;;;;;;;6.27;5.67;;;15.30;99.90;;;;;;5098296;28;20435;-59
2023/07/21 00:57:54;;;;;;;6.60;6.00;;;15.40;99.90;;;;;;5098054;28;20546;-58
2023/07/21 01:00:23;;;;;;;6.00;5.50;;;15.40;1.00;;;;;;5097739;28;20555;-58
2023/07/21 01:03:39;;;;;;;6.53;5.87;;;15.50;93.40;;;;;;5097513;28;20468;-58
2023/07/21 01:16:30;;;;;;;6.90;6.30;;;15.30;99.90;;;;;;6201281;22;20447;-64
2023/07/21 01:18:58;;;;;;;7.00;6.40;;;15.30;1.00;;;;;;5036466;28;20787;-65
2023/07/21 01:21:35;;;;;;;7.20;6.57;;;15.30;1.00;;;;;;5037177;28;20586;-64
2023/07/21 01:24:09;;;;;;;6.17;5.57;;;15.30;1.00;;;;;;5037151;28;20506;-64
2023/07/21 01:26:40;;;;;;;6.33;5.83;;;15.30;47.10;;;;;;5037630;28;20782;-65
2023/07/21 01:29:08;;;;;;;7.03;6.37;;;15.30;1.00;;;;;;5037573;28;20463;-65
2023/07/21 01:31:37;;;;;;;7.10;6.50;;;15.20;1.00;;;;;;5037009;28;20466;-65
2023/07/21 01:34:09;;;;;;;9.30;6.60;;;15.20;1.00;;;;;;5037225;28;20871;-65
2023/07/21 01:36:37;;;;;;;7.70;6.90;;;15.00;99.90;;;;;;5037582;28;20462;-65
2023/07/21 01:39:07;;;;;;;8.00;7.20;;;14.90;1.00;;;;;;5037569;28;20468;-65
2023/07/21 01:41:34;;;;;;;7.33;6.70;;;14.80;1.00;;;;;;5037107;28;20951;-65
2023/07/21 01:44:04;;;;;;;7.23;6.53;;;14.80;99.90;;;;;;5036969;28;20578;-65
2023/07/21 01:46:31;;;;;;;7.13;6.40;;;14.90;1.00;;;;;;5037502;28;20514;-65
2023/07/21 01:49:32;;;;;;;7.17;6.50;;;15.00;1.00;;;;;;5037144;28;20753;-65
2023/07/21 01:51:59;;;;;;;7.93;7.23;;;14.90;1.00;;;;;;5034301;28;20481;-65
2023/07/21 01:54:34;;;;;;;9.30;7.03;;;14.90;1.00;;;;;;5037358;28;20894;-65
2023/07/21 01:57:06;;;;;;;7.37;6.77;;;14.90;99.90;;;;;;5037344;28;20441;-65
2023/07/21 01:59:35;;;;;;;7.30;6.70;;;14.90;1.00;;;;;;5037202;28;20463;-65
2023/07/21 02:02:02;;;;;;;7.07;6.40;;;14.80;99.90;;;;;;5036959;28;20570;-66
2023/07/21 02:04:29;;;;;;;7.80;6.97;;;14.80;99.90;;;;;;5037336;28;20494;-65
2023/07/21 02:06:57;;;;;;;6.40;5.80;;;14.90;1.00;;;;;;5037041;28;20463;-65
2023/07/21 02:09:24;;;;;;;6.83;5.87;;;14.90;1.00;;;;;;5036936;28;20561;-65
2023/07/21 02:11:51;;;;;;;6.97;6.47;;;14.80;1.00;;;;;;5036901;28;20467;-65
2023/07/21 02:14:19;;;;;;;8.20;6.30;;;14.70;1.00;;;;;;5037040;28;20503;-65
2023/07/21 02:16:47;;;;;;;7.90;7.10;;;14.60;1.00;;;;;;5037228;28;20494;-66
2023/07/21 02:19:15;;;;;;;7.00;6.40;;;14.70;1.00;;;;;;5036462;28;20987;-66
2023/07/21 02:21:43;;;;;;;7.67;6.93;;;14.70;1.00;;;;;;5036756;28;20441;-66
2023/07/21 02:24:10;;;;;;;7.03;6.33;;;14.70;1.00;;;;;;5036110;28;20581;-66
2023/07/21 02:26:37;;;;;;;6.93;6.40;;;14.70;1.00;;;;;;5038281;28;20463;-66
2023/07/21 02:29:05;;;;;;;7.43;6.83;;;14.70;1.00;;;;;;5040107;28;20462;-65
2023/07/21 02:31:32;;;;;;;6.77;6.17;;;14.60;1.00;;;;;;5040198;28;20467;-65
2023/07/21 02:34:01;;;;;;;9.60;7.57;;;14.70;1.00;;;;;;5040437;28;20459;-66
2023/07/21 02:36:29;;;;;;;6.93;6.33;;;14.60;1.00;;;;;;5040871;28;20509;-66
2023/07/21 02:38:56;;;;;;;7.20;6.30;;;14.50;1.00;;;;;;5040506;28;20569;-65
2023/07/21 02:41:23;;;;;;;7.67;7.07;;;14.50;1.00;;;;;;5040169;28;20775;-66
2023/07/21 02:43:50;;;;;;;8.00;7.10;;;14.50;1.00;;;;;;5040357;28;20491;-66
2023/07/21 02:46:17;;;;;;;6.60;6.00;;;14.50;4.70;;;;;;5040011;28;20482;-66
2023/07/21 02:48:46;;;;;;;7.60;6.80;;;14.50;24.90;;;;;;5040677;28;20875;-66
2023/07/21 02:51:15;;;;;;;7.27;6.57;;;14.50;1.00;;;;;;5040314;28;20482;-66
2023/07/21 02:53:42;;;;;;;7.90;7.10;;;14.60;1.00;;;;;;5040308;28;20549;-66
2023/07/21 02:56:10;;;;;;;7.43;6.73;;;14.50;1.00;;;;;;5040182;28;20463;-66
2023/07/21 02:58:37;;;;;;;6.93;6.33;;;14.50;1.00;;;;;;5040429;28;20463;-66
2023/07/21 03:01:04;;;;;;;8.00;6.87;;;14.50;1.00;;;;;;5040184;28;20490;-66
2023/07/21 03:06:07;;;;;;;8.30;7.50;;;14.50;1.00;;;;;;5141801;22;20482;-60
2023/07/21 03:08:36;;;;;;;7.30;6.70;;;14.50;1.00;;;;;;5059818;28;20508;-59
2023/07/21 03:11:03;;;;;;;7.50;6.70;;;14.50;1.00;;;;;;5060147;28;20745;-59
2023/07/21 03:13:31;;;;;;;8.50;7.70;;;14.60;1.00;;;;;;5060136;28;20486;-60
2023/07/21 03:15:58;;;;;;;8.13;7.33;;;14.50;1.00;;;;;;5059927;28;20486;-59
2023/07/21 03:18:25;;;;;;;8.30;7.60;;;14.50;1.00;;;;;;5059559;28;20836;-59
2023/07/21 03:20:58;;;;;;;9.03;7.93;;;14.60;1.00;;;;;;5059802;28;20712;-59
2023/07/21 03:23:26;;;;;;;8.37;7.53;;;14.60;1.00;;;;;;5059304;28;20932;-60
2023/07/21 03:25:55;;;;;;;8.40;7.60;;;14.50;1.00;;;;;;5059906;28;20500;-60
2023/07/21 03:28:23;;;;;;;8.47;7.77;;;14.50;1.00;;;;;;5059283;28;20958;-59
2023/07/21 03:30:58;;;;;;;8.10;7.40;;;14.60;1.00;;;;;;5059618;28;20458;-60
2023/07/21 03:33:25;;;;;;;9.47;8.57;;;14.50;1.00;;;;;;5059452;28;20512;-60
2023/07/21 03:36:01;;;;;;;10.20;8.20;;;14.50;1.00;;;;;;5059383;28;20462;-60
2023/07/21 03:38:29;;;;;;;9.37;8.57;;;14.50;1.00;;;;;;5058757;28;20865;-60
2023/07/21 03:41:03;;;;;;;8.93;8.03;;;14.50;1.00;;;;;;5058861;28;20462;-59
2023/07/21 03:43:30;;;;;;;8.37;7.67;;;14.50;1.00;;;;;;5059334;28;20553;-60
2023/07/21 03:45:58;;;;;;;8.20;7.50;;;14.40;1.00;;;;;;5059296;28;20931;-60
2023/07/21 03:48:26;;;;;;;7.97;7.27;;;14.40;1.00;;;;;;5058966;28;20875;-60
2023/07/21 03:50:57;;;;;;;7.70;7.10;;;14.40;99.90;;;;;;5058645;28;20497;-60
2023/07/21 03:53:25;;;;;;;7.70;7.00;;;14.50;99.90;;;;;;5059340;28;20897;-59
2023/07/21 03:55:52;;;;;;;8.13;7.43;;;14.50;99.90;;;;;;5059158;28;20463;-59
2023/07/21 03:58:21;;;;;;;8.00;7.30;;;14.40;99.90;;;;;;5059565;28;20537;-60
2023/07/21 04:00:48;;;;;;;9.33;8.23;;;14.50;99.90;;;;;;5058859;28;20910;-59
2023/07/21 04:03:17;;;;;;;9.60;8.07;;;14.40;99.90;;;;;;5058831;28;20926;-59
2023/07/21 04:05:44;;;;;;;9.17;8.37;;;14.30;99.90;;;;;;5058608;28;20553;-60
2023/07/21 04:08:11;;;;;;;7.60;6.90;;;14.20;1.00;;;;;;5058964;28;20469;-60
2023/07/21 04:10:41;;;;;;;9.10;8.30;;;14.20;1.00;;;;;;5058651;28;20762;-59
2023/07/21 04:13:09;;;;;;;8.83;8.13;;;14.20;1.00;;;;;;5058880;28;20457;-59
2023/07/21 04:15:38;;;;;;;8.77;8.00;;;14.20;1.00;;;;;;5058754;28;20459;-60
2023/07/21 04:18:05;;;;;;;10.33;9.10;;;14.20;1.00;;;;;;5058650;28;20720;-60
2023/07/21 04:20:33;;;;;;;8.83;8.03;;;14.20;1.00;;;;;;5058371;28;20575;-59
2023/07/21 04:23:00;;;;;;;9.57;8.57;;;14.20;1.00;;;;;;5058494;28;20498;-60
2023/07/21 04:25:27;;;;;;;9.13;8.43;;;14.20;1.00;;;;;;5058092;28;20490;-60
2023/07/21 04:27:55;;;;;;;9.13;8.43;;;14.20;1.00;;;;;;5058663;28;20556;-59
2023/07/21 04:30:22;;;;;;;9.27;8.37;;;14.30;1.00;;;;;;5058466;28;20890;-60
2023/07/21 04:32:51;;;;;;;8.20;7.40;;;14.40;1.00;;;;;;5057976;28;20501;-59
2023/07/21 04:35:19;;;;;;;8.90;8.20;;;14.40;1.00;;;;;;5058361;28;20458;-59
2023/07/21 04:37:46;;;;;;;8.30;7.50;;;14.40;1.00;;;;;;5058400;28;20581;-59
2023/07/21 04:40:13;;;;;;;8.30;7.50;;;14.50;1.00;;;;;;5058608;28;20944;-60
2023/07/21 04:42:41;;;;;;;8.47;7.67;;;14.50;1.00;;;;;;5057834;28;20464;-61
2023/07/21 04:45:11;;;;;;;8.43;7.53;;;14.50;1.00;;;;;;5053863;28;20533;-60
2023/07/21 04:47:40;;;;;;;8.80;8.10;;;14.60;99.90;;;;;;5056001;28;20500;-59
2023/07/21 04:50:10;;;;;;;9.07;8.03;;;14.60;99.90;;;;;;5057861;28;20436;-60
2023/07/21 04:52:38;;;;;;;8.53;7.80;;;14.50;99.90;;;;;;5422747;22;20491;-66
2023/07/21 04:55:06;;;;;;;8.97;8.00;;;14.60;99.90;;;;;;5037276;28;20470;-66
2023/07/21 04:57:34;;;;;;;8.87;8.07;;;14.60;99.90;;;;;;5040819;28;20804;-66
2023/07/21 05:00:01;;;;;;;9.53;8.63;;;14.60;99.90;;;;;;5037750;28;20495;-66
2023/07/21 05:02:29;;;;;;;9.80;8.90;;;14.60;99.90;;;;;;5038118;28;20471;-66
2023/07/21 05:04:58;;;;;;;10.47;9.57;;;14.60;99.90;;;;;;5035299;28;20586;-65
2023/07/21 05:07:27;;;;;;;9.87;8.90;;;14.70;99.90;;;;;;5032839;28;20463;-66
2023/07/21 05:09:55;;;;;;;9.10;8.20;;;14.70;99.90;;;;;;5028595;28;20900;-65
2023/07/21 05:12:25;;;;;;;10.23;8.87;;;14.80;99.90;;;;;;5028416;28;20472;-66
2023/07/21 05:14:52;;;;;;;10.53;9.63;;;14.80;99.90;;;;;;5028436;28;20459;-66
2023/07/21 05:17:20;;;;;;;10.20;9.20;;;14.90;99.90;;;;;;5025106;28;20767;-66
2023/07/21 05:19:47;;;;;;;11.43;10.33;;;14.90;99.90;;;;;;5031819;28;20464;-66
2023/07/21 05:22:15;;;;;;;10.47;9.57;;;15.00;99.90;;;;;;5037414;28;20554;-66
2023/07/21 05:24:43;;;;;;;10.80;9.80;;;15.10;99.90;;;;;;5035946;28;20483;-65
2023/07/21 05:27:11;;;;;;;12.33;11.13;;;15.20;99.90;;;;;;5036026;28;20558;-65
2023/07/21 05:29:38;;;;;;;11.53;10.30;;;15.40;99.90;;;;;;5031902;28;20463;-65
2023/07/21 05:32:06;;;;;;;11.40;10.20;;;15.40;99.90;;;;;;5036720;28;20545;-65
2023/07/21 05:34:33;;;;;;;11.70;10.70;;;15.50;99.90;;;;;;5042654;28;20506;-65
2023/07/21 05:37:01;;;;;;;11.03;10.03;;;15.60;99.90;;;;;;5043204;28;20832;-65
2023/07/21 05:39:31;;;;;;;12.60;11.50;;;15.70;99.90;;;;;;5049406;28;20913;-62
2023/07/21 05:42:00;;;;;;;12.20;10.87;;;15.80;99.90;;;;;;5055948;28;20556;-62
2023/07/21 05:44:30;;;;;;;12.70;11.50;;;15.90;83.80;;;;;;5056857;28;20890;-62
2023/07/21 05:46:57;;;;;;;16.50;12.80;;;15.90;1.00;;;;;;5057187;28;20916;-62
2023/07/21 05:49:25;;;;;;;12.93;11.60;;;16.00;1.00;;;;;;5057146;28;20463;-61
2023/07/21 05:51:53;;;;;;;13.40;12.20;;;16.10;1.00;;;;;;5052707;28;20565;-62
2023/07/21 05:54:20;;;;;;;12.70;11.50;;;16.30;1.00;;;;;;5036694;28;20538;-62
2023/07/21 05:56:47;;;;;;;13.23;11.93;;;16.40;1.00;;;;;;5036486;28;20463;-61
2023/07/21 05:59:16;;;;;;;13.97;12.67;;;16.50;1.00;;;;;;5037028;28;20997;-61
2023/07/21 06:01:43;;;;;;;14.07;12.23;;;16.60;1.00;;;;;;5038445;28;20557;-61
2023/07/21 06:04:11;;;;;;;12.80;11.60;;;16.70;1.00;;;;;;5041060;28;20857;-61
2023/07/21 06:06:39;;;;;;;11.83;10.83;;;16.90;1.00;;;;;;5040952;28;21034;-61
2023/07/21 06:09:06;;;;;;;13.70;12.50;;;17.00;1.00;;;;;;5040236;28;20558;-61
2023/07/21 06:11:33;;;;;;;13.37;12.20;;;17.10;99.90;;;;;;5041383;28;20509;-61
2023/07/21 06:14:01;;;;;;;12.33;11.23;;;17.10;99.90;;;;;;5041353;28;20466;-62
2023/07/21 06:16:30;;;;;;;12.60;11.30;;;17.20;99.90;;;;;;5040571;28;20469;-61
2023/07/21 06:18:57;;;;;;;12.30;11.10;;;17.20;99.90;;;;;;5040802;28;20892;-61
2023/07/21 06:21:24;;;;;;;12.87;11.77;;;17.40;99.90;;;;;;5040860;28;20517;-60
2023/07/21 06:23:53;;;;;;;13.57;12.30;;;17.40;99.90;;;;;;5040900;28;20459;-61
2023/07/21 06:26:20;;;;;;;13.00;11.80;;;17.40;99.90;;;;;;5040505;28;20501;-61
2023/07/21 06:28:48;;;;;;;13.63;12.33;;;17.40;99.90;;;;;;5040822;28;20830;-60
2023/07/21 06:31:15;;;;;;;14.20;13.00;;;17.40;99.90;;;;;;5041003;28;20474;-61
2023/07/21 06:33:44;;;;;;;13.80;12.50;;;17.50;99.90;;;;;;5041107;28;20541;-60
2023/07/21 06:36:11;;;;;;;13.40;12.20;;;17.60;99.90;;;;;;5040739;28;20922;-60
2023/07/21 06:38:38;;;;;;;15.10;13.80;;;17.70;99.90;;;;;;5040497;28;20475;-60
2023/07/21 06:41:06;;;;;;;16.30;14.40;;;17.80;99.90;;;;;;5040571;28;20498;-60
2023/07/21 06:43:33;;;;;;;16.43;15.00;;;18.00;99.90;;;;;;5040474;28;20467;-60
2023/07/21 06:46:02;;;;;;;16.70;15.30;;;18.10;1.00;;;;;;5040779;28;20581;-61
2023/07/21 06:48:29;;;;;;;17.40;15.77;;;18.30;1.00;;;;;;5040259;28;20541;-60
2023/07/21 06:50:58;;;;;;;19.17;17.23;;;18.30;99.90;;;;;;5040456;28;20887;-60
2023/07/21 06:53:25;;;;;;;18.00;16.40;;;18.50;1.00;;;;;;5040574;28;20590;-60
2023/07/21 06:55:54;;;;;;;16.30;14.90;;;18.70;1.00;;;;;;5040782;28;20823;-60
2023/07/21 06:58:22;;;;;;;17.03;15.30;;;19.10;1.00;;;;;;5039954;28;20463;-60
2023/07/21 07:00:50;;;;;;;17.20;15.60;;;19.30;99.90;;;;;;5039751;28;20565;-59
2023/07/21 07:03:17;;;;;;;16.50;15.07;;;19.60;99.90;;;;;;5038872;28;20509;-60
2023/07/21 07:05:47;;;;;;;16.37;14.87;;;19.70;69.00;;;;;;5039127;28;20497;-59
2023/07/21 07:08:17;;;;;;;17.77;16.17;;;19.90;1.00;;;;;;5040230;28;20521;-59
2023/07/21 07:10:48;;;;;;;14.77;13.33;;;20.00;1.00;;;;;;5039998;28;20463;-59
2023/07/21 07:13:16;;;;;;;15.23;13.83;;;20.30;1.00;;;;;;5039382;28;20895;-59
2023/07/21 07:15:48;;;;;;;16.13;14.53;;;20.40;99.90;;;;;;5039868;28;20464;-59
2023/07/21 07:18:15;;;;;;;14.33;13.00;;;20.50;99.90;;;;;;5040301;28;20466;-59
2023/07/21 07:20:49;;;;;;;14.47;13.27;;;20.40;99.90;;;;;;5038750;28;20557;-59
2023/07/21 07:23:19;;;;;;;13.70;12.57;;;20.60;1.00;;;;;;5037903;28;20455;-60
2023/07/21 07:25:48;;;;;;;15.33;13.93;;;20.80;99.90;;;;;;5037783;28;20953;-60
2023/07/21 07:28:16;;;;;;;14.03;12.43;;;21.00;99.90;;;;;;5038130;28;20463;-60
2023/07/21 07:30:44;;;;;;;13.17;12.07;;;21.10;99.90;;;;;;5038151;28;20839;-59
2023/07/21 07:33:11;;;;;;;13.73;12.27;;;21.30;99.90;;;;;;5038304;28;20886;-60
2023/07/21 07:35:47;;;;;;;12.70;11.60;;;21.40;99.90;;;;;;5039103;28;20551;-63
2023/07/21 07:38:14;;;;;;;12.97;11.77;;;21.20;55.60;;;;;;5039670;28;20466;-63
2023/07/21 07:40:43;;;;;;;10.90;10.00;;;20.40;1.00;;;;;;5039342;28;20513;-63
2023/07/21 07:43:11;;;;;;;13.73;12.33;;;20.60;1.00;;;;;;5039229;28;20471;-63
2023/07/21 07:45:39;;;;;;;10.83;9.83;;;20.60;1.00;;;;;;5039241;28;20487;-64
2023/07/21 07:48:07;;;;;;;10.33;9.60;;;20.70;1.00;;;;;;5039684;28;20470;-64
2023/07/21 07:50:39;;;;;;;10.87;9.90;;;21.20;82.40;;;;;;5039050;28;20445;-65
2023/07/21 07:53:06;;;;;;;11.00;10.10;;;21.60;1.00;;;;;;5038991;28;20556;-64
2023/07/21 07:55:38;;;;;;;11.53;10.53;;;21.40;1.00;;;;;;5038944;28;20513;-65
2023/07/21 07:58:07;;;;;;;10.30;9.40;;;21.80;99.90;;;;;;5039380;28;20545;-64
2023/07/21 08:00:36;;;;;;;9.77;8.97;;;22.00;99.90;;;;;;5039080;28;20487;-64
2023/07/21 08:03:05;;;;;;;9.27;8.47;;;21.60;1.00;;;;;;5039009;28;20463;-66
2023/07/21 08:05:32;;;;;;;9.00;8.30;;;21.60;1.00;;;;;;5038778;28;20499;-64
2023/07/21 08:08:00;;;;;;;9.93;9.13;;;21.90;1.00;;;;;;5039365;28;20467;-64
2023/07/21 08:10:28;;;;;;;9.67;8.97;;;22.30;1.00;;;;;;5038794;28;20931;-64
2023/07/21 08:12:55;;;;;;;9.97;9.00;;;22.90;1.00;;;;;;5039094;28;20467;-64
2023/07/21 08:15:25;;;;;;;11.07;8.80;;;22.90;1.00;;;;;;5040237;28;20464;-64
2023/07/21 08:17:53;;;;;;;10.37;9.57;;;23.10;1.00;;;;;;5039092;28;20559;-64
2023/07/21 08:20:21;;;;;;;9.50;8.47;;;23.00;99.90;;;;;;5039083;28;20968;-63
2023/07/21 08:22:48;;;;;;;9.80;9.03;;;22.30;99.90;;;;;;5038311;28;20525;-63
2023/07/21 08:25:17;;;;;;;11.50;10.50;;;21.60;99.90;;;;;;5039494;28;20472;-63
2023/07/21 08:27:44;;;;;;;9.20;8.40;;;21.70;99.90;;;;;;5038436;28;20554;-64
2023/07/21 08:30:12;;;;;;;9.70;9.00;;;22.20;99.90;;;;;;5039546;28;20529;-65
2023/07/21 08:32:41;;;;;;;8.63;7.93;;;22.00;99.90;;;;;;5038542;28;20557;-64
2023/07/21 08:35:10;;;;;;;12.63;11.43;;;22.00;99.90;;;;;;5045690;28;20900;-63
2023/07/21 08:37:38;;;;;;;10.57;9.77;;;22.50;99.90;;;;;;5052499;28;20815;-63
2023/07/21 08:40:07;;;;;;;10.20;9.30;;;22.80;99.90;;;;;;5040909;28;20466;-62
2023/07/21 08:42:54;;;;;;;9.43;8.60;;;22.90;99.90;;;;;;5036588;28;20451;-64
2023/07/21 08:45:21;;;;;;;10.20;9.40;;;23.30;99.90;;;;;;5037189;28;20462;-63
2023/07/21 08:47:50;;;;;;;10.37;9.47;;;23.60;99.90;;;;;;5038176;28;20882;-63
2023/07/21 08:50:19;;;;;;;11.83;10.93;;;23.80;99.90;;;;;;5039005;28;20498;-65
2023/07/21 08:52:48;;;;;;;11.03;10.10;;;23.40;99.90;;;;;;5038265;28;20517;-64
2023/07/21 08:55:16;;;;;;;10.87;9.90;;;23.40;99.90;;;;;;5038666;28;20467;-63
2023/07/21 08:57:43;;;;;;;11.67;10.57;;;23.30;99.90;;;;;;5038611;28;20540;-63
2023/07/21 09:00:13;;;;;;;11.83;10.77;;;22.60;99.90;;;;;;5037729;28;20499;-63
2023/07/21 09:02:48;;;;;;;11.27;10.27;;;22.20;99.90;;;;;;5037865;28;20565;-63
2023/07/21 09:05:18;;;;;;;11.77;10.67;;;22.10;99.90;;;;;;5038667;28;20752;-63
2023/07/21 09:07:46;;;;;;;11.13;10.33;;;21.80;99.90;;;;;;5038701;28;20859;-63
2023/07/21 09:10:13;;;;;;;11.40;10.40;;;21.40;99.90;;;;;;5039119;28;20497;-62
2023/07/21 09:12:41;;;;;;;10.67;9.87;;;21.30;99.90;;;;;;5038198;28;20463;-63
2023/07/21 09:15:10;;;;;;;10.07;9.33;;;21.20;99.90;;;;;;5038194;28;20491;-63
2023/07/21 09:17:42;;;;;;;9.50;8.70;;;21.20;99.90;;;;;;5038641;28;20553;-63
2023/07/21 09:20:10;;;;;;;10.13;9.33;;;21.10;99.90;;;;;;5038719;28;20463;-62
2023/07/21 09:22:40;;;;;;;9.57;8.77;;;20.90;99.90;;;;;;5040679;28;20830;-62
2023/07/21 09:25:08;;;;;;;10.97;10.17;;;21.10;99.90;;;;;;5055901;28;20475;-62
2023/07/21 09:27:39;;;;;;;10.67;9.87;;;20.60;99.90;;;;;;5057751;28;20526;-62
2023/07/21 09:30:08;;;;;;;8.90;8.10;;;20.70;99.90;;;;;;5058057;28;20458;-62
2023/07/21 09:32:44;;;;;;;10.40;9.40;;;21.50;99.90;;;;;;5057816;28;20466;-63
2023/07/21 09:35:11;;;;;;;9.90;9.10;;;21.80;99.90;;;;;;5057291;28;20466;-62
2023/07/21 09:37:41;;;;;;;8.27;7.63;;;21.70;99.90;;;;;;5058021;28;20512;-63
2023/07/21 09:40:10;;;;;;;8.03;7.23;;;21.80;99.90;;;;;;5058210;28;20469;-63
2023/07/21 09:42:39;;;;;;;7.07;6.57;;;22.00;99.90;;;;;;5057288;28;20568;-63
2023/07/21 09:45:08;;;;;;;6.53;5.97;;;21.70;99.90;;;;;;5057113;28;20462;-63
2023/07/21 09:47:38;;;;;;;7.80;7.10;;;22.00;99.90;;;;;;5057095;28;20547;-63
2023/07/21 09:50:06;;;;;;;6.17;5.57;;;22.30;99.90;;;;;;5055595;28;20462;-62
2023/07/21 09:52:41;;;;;;;7.60;7.03;;;22.30;99.90;;;;;;5053453;28;20491;-62
2023/07/21 09:55:10;;;;;;;7.77;7.27;;;22.30;99.90;;;;;;5037382;28;20830;-63
2023/07/21 09:57:43;;;;;;;7.50;6.90;;;22.30;99.90;;;;;;5037706;28;20728;-64
2023/07/21 10:00:14;;;;;;;6.07;5.60;;;22.40;99.90;;;;;;5037743;28;20467;-63
2023/07/21 10:02:43;;;;;;;6.80;6.30;;;22.60;99.90;;;;;;5037651;28;20466;-63
2023/07/21 10:05:11;;;;;;;7.90;7.20;;;22.50;99.90;;;;;;5037598;28;20517;-63
2023/07/21 10:07:42;;;;;;;7.13;6.53;;;22.10;90.20;;;;;;5038585;28;20804;-62
2023/07/21 10:10:11;;;;;;;7.37;6.37;;;22.40;99.90;;;;;;5037939;28;20467;-63
2023/07/21 10:12:46;;;;;;;7.20;6.60;;;23.00;99.90;;;;;;5037221;28;20565;-63
2023/07/21 10:15:19;;;;;;;5.87;5.37;;;22.90;68.60;;;;;;5037465;28;20467;-62
2023/07/21 10:17:57;;;;;;;7.10;6.50;;;23.50;99.90;;;;;;5037790;28;20965;-63
2023/07/21 10:20:39;;;;;;;6.67;6.07;;;23.90;27.10;;;;;;5038978;28;20451;-63
2023/07/21 10:23:08;;;;;;;8.10;7.40;;;24.30;79.50;;;;;;5038428;28;20471;-63
2023/07/21 10:26:05;;;;;;;5.47;5.07;;;24.60;35.60;;;;;;5037221;28;20466;-62
2023/07/21 10:28:38;;;;;;;6.50;6.10;;;25.00;30.60;;;;;;4977588;28;20453;-61
2023/07/21 10:31:36;;;;;;;6.33;5.73;;;25.10;1.00;;;;;;5025654;28;20510;-62
2023/07/21 10:34:04;;;;;;;6.13;5.63;;;25.30;1.00;;;;;;5039026;28;20467;-63
2023/07/21 10:36:43;;;;;;;5.73;5.33;;;24.30;1.00;;;;;;5037596;28;20465;-63
2023/07/21 10:39:14;;;;;;;5.10;4.70;;;24.00;1.00;;;;;;5039316;28;20455;-62
2023/07/21 10:41:41;;;;;;;5.40;5.00;;;23.80;1.00;;;;;;5037308;28;20467;-62
2023/07/21 10:44:12;;;;;;;6.87;6.30;;;24.10;1.00;;;;;;5037296;28;20517;-63
2023/07/21 10:46:40;;;;;;;5.70;5.20;;;24.60;1.00;;;;;;5036929;28;20487;-62
2023/07/21 10:49:10;;;;;;;6.40;5.83;;;25.00;1.00;;;;;;5041348;28;20494;-62
2023/07/21 10:51:39;;;;;;;6.00;5.50;;;25.50;1.00;;;;;;5040682;28;20463;-62
2023/07/21 10:54:06;;;;;;;6.13;5.53;;;25.60;1.00;;;;;;5040899;28;20918;-62
2023/07/21 10:56:36;;;;;;;6.13;5.63;;;24.60;1.00;;;;;;5039856;28;20901;-62
2023/07/21 10:59:04;;;;;;;6.10;5.60;;;24.60;1.00;;;;;;5042835;28;20468;-62
2023/07/21 11:01:32;;;;;;;6.93;6.43;;;24.20;1.00;;;;;;5058368;28;20462;-62
2023/07/21 11:04:00;;;;;;;5.90;5.43;;;24.10;99.90;;;;;;5060096;28;20461;-62
2023/07/21 11:06:27;;;;;;;6.60;5.93;;;24.30;1.00;;;;;;5060037;28;20517;-61
2023/07/21 11:08:55;;;;;;;5.40;4.90;;;24.50;99.90;;;;;;5060143;28;20465;-61
2023/07/21 11:11:22;;;;;;;5.33;4.93;;;24.60;99.90;;;;;;5060164;28;20902;-62
2023/07/21 11:13:51;;;;;;;6.93;6.33;;;24.40;99.90;;;;;;5060215;28;20461;-62
2023/07/21 11:16:18;;;;;;;6.20;5.80;;;24.10;99.90;;;;;;5052696;28;20463;-61
2023/07/21 11:18:46;;;;;;;6.70;6.10;;;24.60;99.90;;;;;;5038546;28;20463;-62
2023/07/21 11:21:13;;;;;;;6.13;5.67;;;24.30;99.90;;;;;;5039630;28;20538;-62
2023/07/21 11:23:40;;;;;;;6.00;5.47;;;24.50;99.90;;;;;;5040055;28;20532;-61
2023/07/21 11:26:09;;;;;;;6.07;4.87;;;23.90;99.90;;;;;;5039492;28;20467;-62
2023/07/21 11:28:39;;;;;;;4.70;4.40;;;24.20;99.90;;;;;;5039385;28;20862;-62
2023/07/21 11:31:13;;;;;;;5.40;4.90;;;24.10;99.90;;;;;;5050626;28;20512;-63
2023/07/21 11:33:44;;;;;;;6.70;6.20;;;23.80;99.90;;;;;;5041494;28;20462;-61
2023/07/21 11:36:13;;;;;;;5.37;4.93;;;23.50;99.90;;;;;;5032560;28;20458;-62
2023/07/21 11:38:41;;;;;;;5.10;4.70;;;23.60;99.90;;;;;;5048381;28;20468;-62
2023/07/21 11:41:08;;;;;;;5.23;4.73;;;23.60;99.90;;;;;;5043063;28;20488;-62
2023/07/21 11:43:48;;;;;;;5.67;5.17;;;23.80;99.90;;;;;;5048823;28;20470;-62
2023/07/21 11:46:24;;;;;;;6.20;5.60;;;24.20;99.90;;;;;;5045633;28;20891;-62
2023/07/21 11:48:52;;;;;;;6.33;5.83;;;24.50;99.90;;;;;;5044833;28;20451;-61
2023/07/21 11:51:22;;;;;;;6.60;6.10;;;24.30;99.90;;;;;;5041035;28;20559;-61
2023/07/21 11:53:51;;;;;;;5.47;4.97;;;25.10;99.90;;;;;;5038273;28;20491;-63
2023/07/21 11:56:19;;;;;;;8.60;5.30;;;25.60;99.90;;;;;;5039436;28;20455;-60
2023/07/21 11:58:46;;;;;;;5.37;4.97;;;25.30;99.90;;;;;;5038801;28;20451;-61
2023/07/21 12:01:13;;;;;;;4.30;3.93;;;26.10;99.90;;;;;;5039033;28;20490;-62
2023/07/21 12:03:42;;;;;;;5.90;5.23;;;26.50;99.90;;;;;;5039495;28;20513;-62
2023/07/21 12:06:10;;;;;;;5.03;4.63;;;26.60;99.90;;;;;;5039261;28;20513;-62
2023/07/21 12:08:37;;;;;;;5.07;4.67;;;26.60;99.90;;;;;;5038797;28;20524;-62
2023/07/21 12:11:05;;;;;;;5.20;4.03;;;26.00;99.90;;;;;;5038754;28;20459;-61
2023/07/21 12:13:32;;;;;;;4.70;4.30;;;25.40;99.90;;;;;;5038794;28;20470;-61
2023/07/21 12:15:59;;;;;;;5.77;5.17;;;25.00;99.90;;;;;;5039161;28;20467;-63
2023/07/21 12:18:27;;;;;;;6.60;5.40;;;24.40;99.90;;;;;;5038800;28;20764;-62
2023/07/21 12:20:57;;;;;;;5.40;5.00;;;24.40;99.90;;;;;;5038450;28;20466;-62
2023/07/21 12:23:24;;;;;;;5.20;4.70;;;24.80;99.90;;;;;;5038907;28;20513;-62
2023/07/21 12:25:52;;;;;;;4.83;3.80;;;25.50;99.90;;;;;;5038957;28;20781;-62
2023/07/21 12:28:20;;;;;;;4.50;4.20;;;26.30;99.90;;;;;;5038345;28;20487;-63
2023/07/21 12:30:47;;;;;;;6.80;3.77;;;26.30;99.90;;;;;;5038437;28;20513;-62
2023/07/21 12:33:15;;;;;;;4.63;4.17;;;26.50;99.90;;;;;;5038525;28;20467;-63
2023/07/21 12:35:42;;;;;;;5.50;4.57;;;26.70;99.90;;;;;;5038869;28;20876;-62
2023/07/21 12:38:11;;;;;;;3.70;3.40;;;26.80;99.90;;;;;;5038701;28;20497;-62
2023/07/21 12:40:39;;;;;;;4.50;4.20;;;27.10;99.90;;;;;;5037924;28;20467;-63
2023/07/21 12:43:06;;;;;;;4.50;4.20;;;27.40;99.90;;;;;;5037228;28;20468;-62
2023/07/21 12:45:33;;;;;;;4.90;4.10;;;27.80;99.90;;;;;;5038010;28;20467;-62
2023/07/21 12:48:01;;;;;;;4.10;3.83;;;28.10;99.90;;;;;;5038560;28;20904;-62
2023/07/21 12:50:28;;;;;;;4.23;3.93;;;27.40;99.90;;;;;;5038305;28;20466;-63
2023/07/21 12:52:55;;;;;;;4.80;4.00;;;26.40;99.90;;;;;;5037913;28;20987;-62
2023/07/21 12:55:24;;;;;;;4.37;3.97;;;25.80;99.90;;;;;;5038096;28;20573;-62
2023/07/21 12:57:52;;;;;;;4.63;4.33;;;25.50;99.90;;;;;;5038295;28;20493;-62
2023/07/21 13:00:20;;;;;;;4.97;4.43;;;25.80;99.90;;;;;;5038156;28;20459;-62
2023/07/21 13:02:48;;;;;;;4.27;3.87;;;26.70;99.90;;;;;;5037675;28;20467;-62
2023/07/21 13:05:15;;;;;;;4.43;4.07;;;26.60;99.90;;;;;;5037822;28;20459;-62
2023/07/21 13:07:43;;;;;;;4.00;3.70;;;26.00;99.90;;;;;;5038164;28;20490;-62